createdAt,value
2022-08-16T00:00:38.389Z,0.60
2022-08-16T00:05:47.970Z,0.53
2022-08-16T00:10:53.444Z,0.40
2022-08-16T00:15:57.209Z,0.60
2022-08-16T00:21:03.776Z,0.50
2022-08-16T00:26:35.104Z,0.50
2022-08-16T00:32:00.089Z,0.47
2022-08-16T00:36:58.083Z,0.60
2022-08-16T00:42:02.330Z,0.60
2022-08-16T00:47:16.222Z,0.60
2022-08-16T00:52:29.554Z,0.40
2022-08-16T00:57:59.889Z,0.57
2022-08-16T01:03:02.089Z,0.60
2022-08-16T01:08:35.292Z,0.60
2022-08-16T01:13:36.734Z,0.60
2022-08-16T01:18:46.024Z,0.50
2022-08-16T01:24:02.218Z,0.53
2022-08-16T01:29:14.805Z,0.40
2022-08-16T01:34:23.267Z,0.40
2022-08-16T01:39:30.845Z,0.40
2022-08-16T01:44:40.128Z,0.50
2022-08-16T01:50:41.731Z,0.50
2022-08-16T01:55:11.199Z,0.50
2022-08-16T02:00:19.177Z,0.40
2022-08-16T02:05:23.838Z,0.50
2022-08-16T02:10:29.650Z,0.43
2022-08-16T02:15:43.735Z,0.50
2022-08-16T02:20:53.475Z,0.50
2022-08-16T02:26:00.076Z,0.53
2022-08-16T02:31:07.667Z,0.50
2022-08-16T02:36:47.625Z,0.50
2022-08-16T02:41:41.753Z,0.50
2022-08-16T02:46:50.650Z,0.50
2022-08-16T02:51:58.143Z,0.60
2022-08-16T02:57:03.816Z,0.50
2022-08-16T03:02:08.248Z,0.60
2022-08-16T03:07:14.424Z,0.50
2022-08-16T03:12:30.348Z,0.60
2022-08-16T03:17:53.763Z,0.40
2022-08-16T03:22:59.274Z,0.47
2022-08-16T03:28:05.079Z,0.60
2022-08-16T03:33:11.943Z,0.70
2022-08-16T03:38:34.039Z,0.50
2022-08-16T03:43:51.285Z,0.60
2022-08-16T03:48:57.680Z,0.60
2022-08-16T03:54:02.033Z,0.50
2022-08-16T03:59:10.194Z,0.60
2022-08-16T04:04:24.997Z,0.60
2022-08-16T04:09:38.297Z,0.60
2022-08-16T04:14:46.599Z,0.40
2022-08-16T04:19:54.779Z,0.50
2022-08-16T04:25:02.264Z,0.50
2022-08-16T04:30:30.204Z,0.70
2022-08-16T04:35:39.628Z,0.50
2022-08-16T04:40:45.337Z,0.40
2022-08-16T04:46:00.214Z,0.50
2022-08-16T04:51:12.112Z,0.60
2022-08-16T04:56:27.218Z,0.50
2022-08-16T05:01:57.718Z,0.60
2022-08-16T05:06:56.522Z,0.50
2022-08-16T05:12:18.068Z,0.70
2022-08-16T05:17:27.854Z,0.80
2022-08-16T05:22:36.714Z,0.70
2022-08-16T05:27:42.902Z,0.60
2022-08-16T05:32:51.242Z,0.70
2022-08-16T05:37:56.448Z,0.60
2022-08-16T05:43:00.879Z,0.50
2022-08-16T05:48:09.517Z,0.70
2022-08-16T05:53:36.532Z,0.70
2022-08-16T05:58:46.695Z,0.60
2022-08-16T06:03:53.867Z,0.70
2022-08-16T06:09:08.997Z,1.00
2022-08-16T06:14:13.828Z,0.70
2022-08-16T06:19:22.134Z,1.00
2022-08-16T06:24:54.671Z,1.00
2022-08-16T06:30:00.273Z,0.70
2022-08-16T06:35:06.442Z,0.60
2022-08-16T06:40:15.775Z,1.00
2022-08-16T06:45:29.321Z,1.00
2022-08-16T06:50:43.118Z,1.13
2022-08-16T06:55:46.864Z,1.20
2022-08-16T07:00:59.797Z,1.00
2022-08-16T07:06:06.782Z,1.00
2022-08-16T07:11:47.216Z,1.20
2022-08-16T07:16:46.902Z,0.80
2022-08-16T07:22:00.039Z,1.00
2022-08-16T07:27:08.640Z,0.93
2022-08-16T07:32:19.105Z,0.80
2022-08-16T07:37:37.620Z,0.57
2022-08-16T07:42:52.971Z,0.90
2022-08-16T07:47:57.773Z,0.97
2022-08-16T07:53:05.016Z,0.60
2022-08-16T07:58:18.486Z,0.60
2022-08-16T08:03:38.833Z,0.73
2022-08-16T08:08:50.191Z,0.63
2022-08-16T08:14:03.755Z,0.90
2022-08-16T08:19:12.341Z,0.90
2022-08-16T08:24:21.518Z,0.90
2022-08-16T08:29:37.575Z,0.80
2022-08-16T08:34:46.516Z,0.87
2022-08-16T08:39:54.649Z,1.00
2022-08-16T08:44:58.701Z,1.10
2022-08-16T08:50:02.754Z,0.90
2022-08-16T08:55:14.099Z,1.10
2022-08-16T09:00:22.898Z,1.10
2022-08-16T09:05:35.616Z,0.60
2022-08-16T09:10:43.795Z,0.93
2022-08-16T09:15:50.116Z,0.77
2022-08-16T09:20:59.139Z,0.83
2022-08-16T09:26:44.116Z,0.80
2022-08-16T09:31:29.256Z,0.97
2022-08-16T09:36:34.834Z,0.70
2022-08-16T09:41:40.105Z,0.87
2022-08-16T09:46:49.679Z,1.00
2022-08-16T09:51:54.874Z,1.00
2022-08-16T09:57:00.651Z,0.73
2022-08-16T10:02:26.772Z,0.90
2022-08-16T10:07:44.620Z,1.00
2022-08-16T10:13:08.416Z,1.00
2022-08-16T10:19:00.269Z,1.03
2022-08-16T10:23:38.147Z,1.20
2022-08-16T10:28:43.498Z,1.00
2022-08-16T10:33:47.788Z,0.90
2022-08-16T10:38:52.077Z,0.90
2022-08-16T10:43:58.246Z,1.00
2022-08-16T10:49:05.129Z,0.90
2022-08-16T10:54:28.548Z,0.80
2022-08-16T10:59:45.911Z,1.00
2022-08-16T11:05:12.074Z,1.03
2022-08-16T11:10:20.180Z,1.17
2022-08-16T11:15:26.909Z,1.37
2022-08-16T11:20:41.141Z,1.13
2022-08-16T11:26:16.226Z,1.00
2022-08-16T11:31:11.641Z,1.00
2022-08-16T11:36:27.677Z,0.70
2022-08-16T11:41:34.050Z,0.73
2022-08-16T11:46:45.209Z,0.80
2022-08-16T11:51:51.641Z,0.70
2022-08-16T11:56:57.560Z,0.60
2022-08-16T12:02:04.414Z,0.70
2022-08-16T12:07:26.589Z,0.70
2022-08-16T12:12:32.858Z,0.73
2022-08-16T12:17:40.464Z,0.97
2022-08-16T12:22:45.606Z,1.00
2022-08-16T12:27:50.028Z,0.73
2022-08-16T12:32:57.783Z,0.67
2022-08-16T12:38:37.963Z,0.67
2022-08-16T12:43:26.860Z,0.60
2022-08-16T12:48:54.134Z,0.60
2022-08-16T12:53:59.694Z,0.80
2022-08-16T12:59:09.300Z,0.70
2022-08-16T13:04:21.296Z,0.77
2022-08-16T13:09:31.626Z,0.60
2022-08-16T13:14:43.908Z,0.67
2022-08-16T13:25:20.940Z,0.70
2022-08-16T13:30:37.198Z,0.80
2022-08-16T13:35:55.792Z,1.20
2022-08-16T13:41:08.335Z,0.70
2022-08-16T13:46:12.893Z,0.70
2022-08-16T13:51:20.558Z,0.60
2022-08-16T13:56:25.762Z,0.67
2022-08-16T14:01:36.541Z,1.00
2022-08-16T14:06:42.885Z,1.03
2022-08-16T14:11:53.324Z,1.00
2022-08-16T14:16:58.539Z,1.00
2022-08-16T14:22:14.130Z,0.73
2022-08-16T14:27:22.088Z,0.67
2022-08-16T14:32:33.603Z,0.73
2022-08-16T14:37:43.209Z,0.60
2022-08-16T14:43:35.494Z,0.50
2022-08-16T14:48:48.465Z,0.50
2022-08-16T14:53:53.534Z,0.70
2022-08-16T14:58:57.186Z,0.70
2022-08-16T15:04:00.796Z,0.70
2022-08-16T15:09:06.257Z,0.50
2022-08-16T15:14:10.488Z,0.63
2022-08-16T15:19:18.801Z,0.50
2022-08-16T15:24:26.093Z,0.67
2022-08-16T15:29:29.701Z,0.57
2022-08-16T15:34:33.647Z,0.63
2022-08-16T15:39:39.920Z,0.63
2022-08-16T15:44:53.085Z,0.60
2022-08-16T15:49:59.364Z,0.60
2022-08-16T15:55:23.574Z,0.60
2022-08-16T16:00:33.555Z,0.80
2022-08-16T16:05:38.272Z,0.70
2022-08-16T16:10:54.593Z,0.60
2022-08-16T16:16:02.773Z,0.60
2022-08-16T16:21:11.902Z,0.57
2022-08-16T16:26:26.704Z,0.60
2022-08-16T16:31:35.904Z,0.63
2022-08-16T16:36:43.535Z,0.60
2022-08-16T16:41:53.856Z,0.70
2022-08-16T16:46:58.176Z,0.80
2022-08-16T16:52:06.642Z,0.70
2022-08-16T16:57:32.438Z,0.80
2022-08-16T17:02:49.333Z,0.70
2022-08-16T17:07:57.509Z,0.83
2022-08-16T17:13:05.280Z,0.60
2022-08-16T17:19:15.349Z,0.50
2022-08-16T17:23:58.870Z,0.60
2022-08-16T17:29:11.110Z,0.77
2022-08-16T17:34:31.267Z,0.63
2022-08-16T17:39:45.231Z,0.50
2022-08-16T17:45:01.494Z,0.60
2022-08-16T17:50:06.412Z,0.70
2022-08-16T17:55:12.963Z,0.60
2022-08-16T18:00:20.593Z,0.70
2022-08-16T18:05:25.702Z,0.77
2022-08-16T18:10:33.225Z,0.60
2022-08-16T18:15:42.244Z,0.70
2022-08-16T18:21:03.364Z,0.60
2022-08-16T18:26:08.380Z,0.83
2022-08-16T18:31:13.472Z,0.73
2022-08-16T18:36:20.219Z,0.80
2022-08-16T18:41:27.944Z,0.73
2022-08-16T18:46:32.965Z,0.73
2022-08-16T18:51:36.909Z,0.70
2022-08-16T18:56:55.680Z,0.80
2022-08-16T19:02:05.157Z,0.80
2022-08-16T19:07:09.613Z,0.80
2022-08-16T19:12:15.988Z,0.80
2022-08-16T19:17:21.151Z,0.80
2022-08-16T19:22:45.233Z,0.90
2022-08-16T19:27:51.291Z,0.90
2022-08-16T19:32:57.397Z,0.80
2022-08-16T19:38:01.068Z,0.90
2022-08-16T19:43:04.738Z,0.93
2022-08-16T19:48:11.832Z,0.80
2022-08-16T19:53:18.958Z,0.90
2022-08-16T19:58:23.148Z,0.90
2022-08-16T20:03:28.187Z,1.40
2022-08-16T20:08:33.217Z,1.50
2022-08-16T20:13:38.533Z,0.97
2022-08-16T20:18:43.554Z,1.30
2022-08-16T20:23:47.340Z,1.00
2022-08-16T20:28:52.571Z,1.17
2022-08-16T20:33:58.482Z,0.90
2022-08-16T20:39:04.572Z,1.10
2022-08-16T20:44:08.676Z,0.90
2022-08-16T20:49:15.044Z,1.00
2022-08-16T20:54:18.746Z,1.20
2022-08-16T20:59:22.440Z,1.40
2022-08-16T21:04:28.775Z,1.37
2022-08-16T21:09:36.193Z,1.20
2022-08-16T21:14:39.828Z,1.13
2022-08-16T21:19:46.153Z,1.40
2022-08-16T21:24:53.781Z,1.30
2022-08-16T21:29:57.852Z,1.30
2022-08-16T21:35:08.221Z,1.60
2022-08-16T21:40:13.688Z,1.27
2022-08-16T21:45:17.540Z,0.90
2022-08-16T21:50:22.638Z,1.10
2022-08-16T21:55:26.710Z,1.10
2022-08-16T22:00:30.868Z,0.97
2022-08-16T22:05:36.660Z,1.10
2022-08-16T22:11:05.602Z,1.00
2022-08-16T22:16:04.901Z,1.20
2022-08-16T22:21:10.039Z,1.47
2022-08-16T22:26:14.687Z,1.30
2022-08-16T22:31:18.310Z,1.40
2022-08-16T22:36:29.012Z,1.60
2022-08-16T22:41:34.281Z,1.90
2022-08-16T22:46:38.468Z,1.70
2022-08-16T22:51:43.541Z,1.40
2022-08-16T22:56:47.250Z,1.20
2022-08-16T23:01:50.986Z,1.10
2022-08-16T23:06:56.266Z,1.50
2022-08-16T23:12:07.226Z,1.23
2022-08-16T23:17:12.432Z,1.50
2022-08-16T23:22:17.424Z,1.63
2022-08-16T23:27:21.192Z,1.70
2022-08-16T23:32:24.785Z,1.50
2022-08-16T23:37:29.811Z,1.60
2022-08-16T23:42:52.157Z,1.30
2022-08-16T23:47:57.800Z,1.40
2022-08-16T23:53:06.581Z,1.20
2022-08-16T23:58:12.046Z,1.37
